Novelty, OH (44073)

7:35 PM EST on December 24, 2014 (GMT -0500)
Northwood | Change Station
CLOSE
Current Station
Personal Weather Station
Location: Novelty, OH
Elevation: 1148 ft
Nearby Weather Stations

Elev 1148 ft 41.49 °N, 81.32 °W | Updated 13 minutes ago

Mostly Cloudy
Mostly Cloudy
55.0 °F
Feels Like 55.0 °F
N
4.7
Wind Variable Wind from SSW

Today
High -- | Low -- °F
--% Chance of Precip.
Yesterday
High -- | Low -- °F
Precip. -- in
7:49 AM 5:00 PM
Waxing Crescent, 12% visible
Pressure 29.25 in
Visibility 7.0 miles
Clouds Overcast 3000 ft
Dew Point 54 °F
Humidity 97%
Rainfall 0.07 in
Snow Depth Not available.
UV 0 out of 12
Pollen .10 out of 12
Air Quality Not available.
Flu Activity Not available.
METAR KCGF 242345Z 18014KT 7SM -RA OVC030 15/13 A2925

More Conditions Fewer Conditions

Pressure 29.25 in
Visibility 7.0 miles
Clouds Overcast 3000 ft
Dew Point 54 °F
Humidity 97%
Rainfall 0.07 in
Snow Depth Not available.
UV 0 out of 12
Pollen .10 out of 12
Air Quality Not available.
Flu Activity Not available.
METAR KCGF 242345Z 18014KT 7SM -RA OVC030 15/13 A2925

More Conditions Fewer Conditions

10-Day Weather Forecast

Almanac

Astronomy

Dec. 24, 2014 Rise Set
Actual Time
Civil Twilight
Nautical Twilight
Astronomical Twilight
Moon
Length of Visible Light
Length of Day
Tomorrow will be .
, % of the Moon is Illuminated

Today's Extremes

State Highs State Lows

Community

WunderPhotos

Upload Photos

1,780,194 photos uploaded!

WunderBlogs® & News

Nearby

Air Quality

  Air Quality AQ Index Pollutant
Not available.

Snow Depth

Station Depth Elevation

Earthquake Activity

City Distance Mag. Time & Date
Minimum magnitude displayed is 2.5.

Coastal Water Temperatures

Place Temperature

Nearby Weather Stations